Miami, FL

11:13 AM EDT on July 23, 2016 (GMT -0400)
Kendall-Tamiami Executive | | Change Station

Elev 10 ft 25.64 °N, 80.43 °W | Updated 20 minutes ago

Partly Cloudy
Partly Cloudy
83 °F
Feels Like 89 °F
N
5
Wind Variable Wind from Variable

Today
High -- | Low -- °F
--% Chance of Precip.
Yesterday
High -- | Low -- °F
Precip. -- in
Pressure 30.04 in
Visibility 10.0 miles
Clouds Few 2800 ft
Heat Index 89 °F
Dew Point 74 °F
Humidity 74%
Rainfall 0.00 in
Snow Depth Not available.
6:44 AM 8:12 PM
Waning Gibbous, 84% visible
METAR KTMB 231453Z VRB04KT 10SM FEW028 28/23 A3004 RMK AO2 SLP171 T02830233 53005 $
Pressure 30.04 in
Visibility 10.0 miles
Clouds Few 2800 ft
Heat Index 89 °F
Dew Point 74 °F
Humidity 74%
Rainfall 0.00 in
Snow Depth Not available.
6:44 AM 8:12 PM
Waning Gibbous, 84% visible
METAR KTMB 231453Z VRB04KT 10SM FEW028 28/23 A3004 RMK AO2 SLP171 T02830233 53005 $

10-Day Weather Forecast

Almanac

Astronomy

Jul. 23, 2016 Rise Set
Actual Time
Civil Twilight
Nautical Twilight
Astronomical Twilight
Moon
Length of Visible Light
Length of Day
Tomorrow will be .
, % of the Moon is Illuminated

Today's Extremes

State Highs State Lows

Community

WunderPhotos

Upload Photos

1,926,837 photos uploaded!

WunderBlog® & News

Nearby

Air Quality

  Air Quality AQ Index Pollutant
Not available.

Snow Depth

Station Depth Elevation

Earthquake Activity

City Distance Mag. Time & Date
Minimum magnitude displayed is 2.5.

Coastal Water Temperatures

Place Temperature

Stations

Nearby Weather Stations

Station Location Temp. Windchill Dew Point Humidity Wind Precip. Elev Updated Type
                   

Watches & Warnings

There are currently no watches in effect.